sensor_id;sensor_type;location;lat;lon;timestamp;temperature;humidity
70867;HTU21D;58487;53.474;49.470;2023-02-28T00:00:20;-0.28;118.99
70867;HTU21D;58487;53.474;49.470;2023-02-28T00:02:46;-0.25;118.99
70867;HTU21D;58487;53.474;49.470;2023-02-28T00:05:15;-0.50;118.99
70867;HTU21D;58487;53.474;49.470;2023-02-28T00:07:42;-0.29;118.99
70867;HTU21D;58487;53.474;49.470;2023-02-28T00:10:11;-0.34;118.99
70867;HTU21D;58487;53.474;49.470;2023-02-28T00:12:39;-0.53;118.99
70867;HTU21D;58487;53.474;49.470;2023-02-28T00:15:06;-0.56;118.99
70867;HTU21D;58487;53.474;49.470;2023-02-28T00:17:32;-0.44;118.99
70867;HTU21D;58487;53.474;49.470;2023-02-28T00:19:59;-0.38;118.99
70867;HTU21D;58487;53.474;49.470;2023-02-28T00:22:39;-0.47;118.99
70867;HTU21D;58487;53.474;49.470;2023-02-28T00:25:06;-0.41;118.99
70867;HTU21D;58487;53.474;49.470;2023-02-28T00:27:35;-0.45;118.99
70867;HTU21D;58487;53.474;49.470;2023-02-28T00:30:01;-0.50;118.99
70867;HTU21D;58487;53.474;49.470;2023-02-28T00:32:28;-0.49;118.99
70867;HTU21D;58487;53.474;49.470;2023-02-28T00:34:54;-0.44;118.99
70867;HTU21D;58487;53.474;49.470;2023-02-28T00:37:20;-0.53;118.99
70867;HTU21D;58487;53.474;49.470;2023-02-28T00:39:46;-0.45;118.99
70867;HTU21D;58487;53.474;49.470;2023-02-28T00:42:12;-0.54;118.99
70867;HTU21D;58487;53.474;49.470;2023-02-28T00:44:38;-0.54;118.99
70867;HTU21D;58487;53.474;49.470;2023-02-28T00:47:04;-0.60;118.99
70867;HTU21D;58487;53.474;49.470;2023-02-28T00:49:30;-0.64;118.99
70867;HTU21D;58487;53.474;49.470;2023-02-28T00:51:57;-0.55;118.99
70867;HTU21D;58487;53.474;49.470;2023-02-28T00:54:23;-0.58;118.99
70867;HTU21D;58487;53.474;49.470;2023-02-28T00:56:49;-0.59;118.99
70867;HTU21D;58487;53.474;49.470;2023-02-28T00:59:17;-0.51;118.99
70867;HTU21D;58487;53.474;49.470;2023-02-28T01:01:45;-0.54;118.99
70867;HTU21D;58487;53.474;49.470;2023-02-28T01:04:12;-0.47;118.99
70867;HTU21D;58487;53.474;49.470;2023-02-28T01:06:39;-0.46;118.99
70867;HTU21D;58487;53.474;49.470;2023-02-28T01:09:06;-0.45;118.99
70867;HTU21D;58487;53.474;49.470;2023-02-28T01:11:33;-0.40;118.99
70867;HTU21D;58487;53.474;49.470;2023-02-28T01:14:00;-0.37;118.99
70867;HTU21D;58487;53.474;49.470;2023-02-28T01:16:27;-0.32;118.99
70867;HTU21D;58487;53.474;49.470;2023-02-28T01:18:53;-0.40;118.99
70867;HTU21D;58487;53.474;49.470;2023-02-28T01:21:20;-0.41;118.99
70867;HTU21D;58487;53.474;49.470;2023-02-28T01:23:47;-0.40;118.99
70867;HTU21D;58487;53.474;49.470;2023-02-28T01:26:20;-0.49;118.99
70867;HTU21D;58487;53.474;49.470;2023-02-28T01:28:47;-0.53;118.99
70867;HTU21D;58487;53.474;49.470;2023-02-28T01:31:13;-0.62;118.99
70867;HTU21D;58487;53.474;49.470;2023-02-28T01:33:40;-0.50;118.99
70867;HTU21D;58487;53.474;49.470;2023-02-28T01:36:18;-0.65;118.99
70867;HTU21D;58487;53.474;49.470;2023-02-28T01:38:45;-0.66;118.99
70867;HTU21D;58487;53.474;49.470;2023-02-28T01:41:18;-0.75;118.99
70867;HTU21D;58487;53.474;49.470;2023-02-28T01:46:10;-0.72;118.99
70867;HTU21D;58487;53.474;49.470;2023-02-28T01:48:40;-0.65;118.99
70867;HTU21D;58487;53.474;49.470;2023-02-28T01:51:12;-0.77;118.99
70867;HTU21D;58487;53.474;49.470;2023-02-28T01:53:45;-0.69;118.99
70867;HTU21D;58487;53.474;49.470;2023-02-28T01:56:13;-0.71;118.99
70867;HTU21D;58487;53.474;49.470;2023-02-28T01:58:53;-0.69;118.99
70867;HTU21D;58487;53.474;49.470;2023-02-28T02:01:24;-0.82;118.99
70867;HTU21D;58487;53.474;49.470;2023-02-28T02:03:54;-0.75;118.99
70867;HTU21D;58487;53.474;49.470;2023-02-28T02:06:27;-0.79;118.99
70867;HTU21D;58487;53.474;49.470;2023-02-28T02:08:55;-0.71;118.99
70867;HTU21D;58487;53.474;49.470;2023-02-28T02:11:22;-0.76;118.99
70867;HTU21D;58487;53.474;49.470;2023-02-28T02:25:18;-0.93;118.99
70867;HTU21D;58487;53.474;49.470;2023-02-28T02:36:36;-0.97;118.99
70867;HTU21D;58487;53.474;49.470;2023-02-28T02:41:52;-0.99;118.99
70867;HTU21D;58487;53.474;49.470;2023-02-28T02:46:51;-0.93;118.99
70867;HTU21D;58487;53.474;49.470;2023-02-28T02:49:26;-0.88;118.99
70867;HTU21D;58487;53.474;49.470;2023-02-28T02:51:53;-0.74;118.99
70867;HTU21D;58487;53.474;49.470;2023-02-28T02:54:30;-0.84;118.99
70867;HTU21D;58487;53.474;49.470;2023-02-28T02:57:00;-0.80;118.99
70867;HTU21D;58487;53.474;49.470;2023-02-28T02:59:28;-0.82;118.99
70867;HTU21D;58487;53.474;49.470;2023-02-28T03:01:59;-0.88;118.99
70867;HTU21D;58487;53.474;49.470;2023-02-28T03:04:28;-0.95;118.99
70867;HTU21D;58487;53.474;49.470;2023-02-28T03:06:56;-0.83;118.99
70867;HTU21D;58487;53.474;49.470;2023-02-28T03:09:23;-0.86;118.99
70867;HTU21D;58487;53.474;49.470;2023-02-28T03:11:49;-0.90;118.99
70867;HTU21D;58487;53.474;49.470;2023-02-28T03:22:49;-0.98;118.99
70867;HTU21D;58487;53.474;49.470;2023-02-28T03:28:18;-1.03;118.99
70867;HTU21D;58487;53.474;49.470;2023-02-28T03:33:21;-1.04;118.99
70867;HTU21D;58487;53.474;49.470;2023-02-28T03:35:58;-1.12;118.99
70867;HTU21D;58487;53.474;49.470;2023-02-28T03:41:26;-1.04;118.99
70867;HTU21D;58487;53.474;49.470;2023-02-28T03:43:57;-1.05;118.99
70867;HTU21D;58487;53.474;49.470;2023-02-28T03:46:27;-1.25;118.99
70867;HTU21D;58487;53.474;49.470;2023-02-28T03:51:41;-1.00;118.99
70867;HTU21D;58487;53.474;49.470;2023-02-28T03:54:13;-1.20;118.99
70867;HTU21D;58487;53.474;49.470;2023-02-28T03:59:59;-1.02;118.99
70867;HTU21D;58487;53.474;49.470;2023-02-28T04:02:30;-0.98;118.99
70867;HTU21D;58487;53.474;49.470;2023-02-28T04:04:56;-1.00;118.99
70867;HTU21D;58487;53.474;49.470;2023-02-28T04:07:22;-1.01;118.99
70867;HTU21D;58487;53.474;49.470;2023-02-28T04:09:48;-1.05;118.99
70867;HTU21D;58487;53.474;49.470;2023-02-28T04:12:14;-1.13;118.99
70867;HTU21D;58487;53.474;49.470;2023-02-28T04:14:40;-1.19;118.99
70867;HTU21D;58487;53.474;49.470;2023-02-28T04:17:06;-1.27;118.99
70867;HTU21D;58487;53.474;49.470;2023-02-28T04:19:32;-1.08;118.99
70867;HTU21D;58487;53.474;49.470;2023-02-28T04:21:58;-0.97;118.99
70867;HTU21D;58487;53.474;49.470;2023-02-28T04:24:27;-0.90;118.99
70867;HTU21D;58487;53.474;49.470;2023-02-28T04:26:55;-0.89;118.99
70867;HTU21D;58487;53.474;49.470;2023-02-28T04:29:24;-0.94;118.99
70867;HTU21D;58487;53.474;49.470;2023-02-28T04:31:50;-1.08;118.99
70867;HTU21D;58487;53.474;49.470;2023-02-28T04:34:19;-1.10;118.99
70867;HTU21D;58487;53.474;49.470;2023-02-28T04:36:47;-1.17;118.99
70867;HTU21D;58487;53.474;49.470;2023-02-28T04:39:19;-1.12;118.99
70867;HTU21D;58487;53.474;49.470;2023-02-28T04:41:46;-1.10;118.99
70867;HTU21D;58487;53.474;49.470;2023-02-28T04:44:12;-1.21;118.99
70867;HTU21D;58487;53.474;49.470;2023-02-28T04:46:38;-1.24;118.99
70867;HTU21D;58487;53.474;49.470;2023-02-28T04:49:05;-1.13;118.99
70867;HTU21D;58487;53.474;49.470;2023-02-28T04:51:31;-0.99;118.99
70867;HTU21D;58487;53.474;49.470;2023-02-28T04:53:57;-1.03;118.99
70867;HTU21D;58487;53.474;49.470;2023-02-28T04:56:23;-1.19;118.99
70867;HTU21D;58487;53.474;49.470;2023-02-28T04:58:50;-1.23;118.99
70867;HTU21D;58487;53.474;49.470;2023-02-28T05:01:27;-1.23;118.99
70867;HTU21D;58487;53.474;49.470;2023-02-28T05:03:54;-1.33;118.99
70867;HTU21D;58487;53.474;49.470;2023-02-28T05:06:22;-1.39;118.99
70867;HTU21D;58487;53.474;49.470;2023-02-28T05:08:49;-1.33;118.99
70867;HTU21D;58487;53.474;49.470;2023-02-28T05:13:50;-1.01;118.99
70867;HTU21D;58487;53.474;49.470;2023-02-28T05:16:17;-1.09;118.99
70867;HTU21D;58487;53.474;49.470;2023-02-28T05:18:44;-1.04;118.99
70867;HTU21D;58487;53.474;49.470;2023-02-28T05:23:57;-1.16;118.99
70867;HTU21D;58487;53.474;49.470;2023-02-28T05:26:25;-1.49;118.99
70867;HTU21D;58487;53.474;49.470;2023-02-28T05:28:51;-1.06;118.99
70867;HTU21D;58487;53.474;49.470;2023-02-28T05:31:17;-1.13;118.99
70867;HTU21D;58487;53.474;49.470;2023-02-28T05:33:43;-1.08;118.99
70867;HTU21D;58487;53.474;49.470;2023-02-28T05:36:09;-1.19;118.99
70867;HTU21D;58487;53.474;49.470;2023-02-28T05:38:35;-1.16;118.99
70867;HTU21D;58487;53.474;49.470;2023-02-28T05:41:08;-1.35;118.99
70867;HTU21D;58487;53.474;49.470;2023-02-28T05:43:35;-1.14;118.99
70867;HTU21D;58487;53.474;49.470;2023-02-28T05:46:06;-1.01;118.99
70867;HTU21D;58487;53.474;49.470;2023-02-28T05:48:33;-1.10;118.99
70867;HTU21D;58487;53.474;49.470;2023-02-28T05:51:00;-1.12;118.99
70867;HTU21D;58487;53.474;49.470;2023-02-28T05:53:26;-1.09;118.99
70867;HTU21D;58487;53.474;49.470;2023-02-28T05:55:53;-1.16;118.99
70867;HTU21D;58487;53.474;49.470;2023-02-28T05:58:19;-1.42;118.99
70867;HTU21D;58487;53.474;49.470;2023-02-28T06:00:45;-1.10;118.99
70867;HTU21D;58487;53.474;49.470;2023-02-28T06:03:11;-0.97;118.99
70867;HTU21D;58487;53.474;49.470;2023-02-28T06:05:37;-1.05;118.99
70867;HTU21D;58487;53.474;49.470;2023-02-28T06:08:04;-1.01;118.99
70867;HTU21D;58487;53.474;49.470;2023-02-28T06:10:33;-0.81;118.99
70867;HTU21D;58487;53.474;49.470;2023-02-28T06:13:00;-0.68;118.99
70867;HTU21D;58487;53.474;49.470;2023-02-28T06:15:29;-0.69;118.99
70867;HTU21D;58487;53.474;49.470;2023-02-28T06:17:55;-0.77;118.99
70867;HTU21D;58487;53.474;49.470;2023-02-28T06:20:22;-0.79;118.99
70867;HTU21D;58487;53.474;49.470;2023-02-28T06:22:49;-0.77;118.99
70867;HTU21D;58487;53.474;49.470;2023-02-28T06:25:17;-0.70;118.99
70867;HTU21D;58487;53.474;49.470;2023-02-28T06:27:43;-0.70;118.99
70867;HTU21D;58487;53.474;49.470;2023-02-28T06:30:11;-0.61;118.99
70867;HTU21D;58487;53.474;49.470;2023-02-28T06:32:37;-0.72;118.99
70867;HTU21D;58487;53.474;49.470;2023-02-28T06:35:03;-0.58;118.99
70867;HTU21D;58487;53.474;49.470;2023-02-28T06:37:31;-0.43;118.99
70867;HTU21D;58487;53.474;49.470;2023-02-28T06:39:57;-0.40;118.99
70867;HTU21D;58487;53.474;49.470;2023-02-28T06:42:24;-0.59;118.99
70867;HTU21D;58487;53.474;49.470;2023-02-28T06:44:55;-0.65;118.99
70867;HTU21D;58487;53.474;49.470;2023-02-28T06:47:21;-0.75;118.99
70867;HTU21D;58487;53.474;49.470;2023-02-28T06:49:48;-0.75;118.99
70867;HTU21D;58487;53.474;49.470;2023-02-28T06:52:14;-0.74;118.99
70867;HTU21D;58487;53.474;49.470;2023-02-28T06:54:40;-0.93;118.99
70867;HTU21D;58487;53.474;49.470;2023-02-28T06:57:06;-0.83;118.99
70867;HTU21D;58487;53.474;49.470;2023-02-28T06:59:33;-0.87;118.99
70867;HTU21D;58487;53.474;49.470;2023-02-28T07:02:01;-0.95;118.99
70867;HTU21D;58487;53.474;49.470;2023-02-28T07:04:27;-0.91;118.99
70867;HTU21D;58487;53.474;49.470;2023-02-28T07:06:54;-0.94;118.99
70867;HTU21D;58487;53.474;49.470;2023-02-28T07:09:22;-0.90;118.99
70867;HTU21D;58487;53.474;49.470;2023-02-28T07:11:48;-1.15;118.99
70867;HTU21D;58487;53.474;49.470;2023-02-28T07:14:15;-1.02;118.99
70867;HTU21D;58487;53.474;49.470;2023-02-28T07:16:41;-1.19;118.99
70867;HTU21D;58487;53.474;49.470;2023-02-28T07:19:07;-1.11;118.99
70867;HTU21D;58487;53.474;49.470;2023-02-28T07:21:33;-1.16;118.99
70867;HTU21D;58487;53.474;49.470;2023-02-28T07:23:59;-0.93;118.99
70867;HTU21D;58487;53.474;49.470;2023-02-28T07:26:25;-0.80;118.99
70867;HTU21D;58487;53.474;49.470;2023-02-28T07:28:51;-0.73;118.99
70867;HTU21D;58487;53.474;49.470;2023-02-28T07:31:17;-0.99;118.99
70867;HTU21D;58487;53.474;49.470;2023-02-28T07:33:44;-0.84;118.99
70867;HTU21D;58487;53.474;49.470;2023-02-28T07:36:13;-0.97;118.99
70867;HTU21D;58487;53.474;49.470;2023-02-28T07:38:45;-1.01;118.99
70867;HTU21D;58487;53.474;49.470;2023-02-28T07:41:12;-0.91;118.99
70867;HTU21D;58487;53.474;49.470;2023-02-28T07:43:38;-0.85;118.99
70867;HTU21D;58487;53.474;49.470;2023-02-28T07:46:07;-0.87;118.99
70867;HTU21D;58487;53.474;49.470;2023-02-28T07:48:33;-0.91;118.99
70867;HTU21D;58487;53.474;49.470;2023-02-28T07:51:00;-0.84;118.99
70867;HTU21D;58487;53.474;49.470;2023-02-28T07:53:27;-0.86;118.99
70867;HTU21D;58487;53.474;49.470;2023-02-28T07:55:57;-0.87;118.99
70867;HTU21D;58487;53.474;49.470;2023-02-28T07:58:24;-0.87;118.99
70867;HTU21D;58487;53.474;49.470;2023-02-28T08:00:50;-0.85;118.99
70867;HTU21D;58487;53.474;49.470;2023-02-28T08:03:21;-1.08;118.99
70867;HTU21D;58487;53.474;49.470;2023-02-28T08:05:47;-0.95;118.99
70867;HTU21D;58487;53.474;49.470;2023-02-28T08:08:15;-0.97;118.99
70867;HTU21D;58487;53.474;49.470;2023-02-28T08:10:41;-0.85;118.99
70867;HTU21D;58487;53.474;49.470;2023-02-28T08:13:08;-0.86;118.99
70867;HTU21D;58487;53.474;49.470;2023-02-28T08:15:34;-0.82;118.99
70867;HTU21D;58487;53.474;49.470;2023-02-28T08:18:00;-0.93;118.99
70867;HTU21D;58487;53.474;49.470;2023-02-28T08:20:26;-0.96;118.99
70867;HTU21D;58487;53.474;49.470;2023-02-28T08:22:52;-0.93;118.99
70867;HTU21D;58487;53.474;49.470;2023-02-28T08:25:19;-0.91;118.99
70867;HTU21D;58487;53.474;49.470;2023-02-28T08:27:45;-0.95;118.99
70867;HTU21D;58487;53.474;49.470;2023-02-28T08:30:12;-0.82;118.99
70867;HTU21D;58487;53.474;49.470;2023-02-28T08:32:39;-0.85;118.99
70867;HTU21D;58487;53.474;49.470;2023-02-28T08:35:06;-1.03;118.99
70867;HTU21D;58487;53.474;49.470;2023-02-28T08:37:32;-0.81;118.99
70867;HTU21D;58487;53.474;49.470;2023-02-28T08:39:58;-0.66;118.99
70867;HTU21D;58487;53.474;49.470;2023-02-28T08:42:24;-0.61;118.99
70867;HTU21D;58487;53.474;49.470;2023-02-28T08:44:50;-0.65;118.99
70867;HTU21D;58487;53.474;49.470;2023-02-28T08:47:16;-0.55;118.99
70867;HTU21D;58487;53.474;49.470;2023-02-28T08:49:42;-0.58;118.99
70867;HTU21D;58487;53.474;49.470;2023-02-28T08:52:08;-0.51;118.99
70867;HTU21D;58487;53.474;49.470;2023-02-28T08:54:35;-0.49;118.99
70867;HTU21D;58487;53.474;49.470;2023-02-28T08:57:02;-0.54;118.99
70867;HTU21D;58487;53.474;49.470;2023-02-28T08:59:29;-0.39;118.99
70867;HTU21D;58487;53.474;49.470;2023-02-28T09:01:55;-0.37;118.99
70867;HTU21D;58487;53.474;49.470;2023-02-28T09:04:21;-0.35;118.99
70867;HTU21D;58487;53.474;49.470;2023-02-28T09:06:48;-0.30;118.99
70867;HTU21D;58487;53.474;49.470;2023-02-28T09:09:15;-0.22;118.99
70867;HTU21D;58487;53.474;49.470;2023-02-28T09:11:41;-0.16;118.99
70867;HTU21D;58487;53.474;49.470;2023-02-28T09:14:07;-0.15;118.99
70867;HTU21D;58487;53.474;49.470;2023-02-28T09:16:34;-0.02;118.99
70867;HTU21D;58487;53.474;49.470;2023-02-28T09:19:00;-0.06;118.99
70867;HTU21D;58487;53.474;49.470;2023-02-28T09:21:27;-0.17;118.99
70867;HTU21D;58487;53.474;49.470;2023-02-28T09:23:53;-0.06;118.99
70867;HTU21D;58487;53.474;49.470;2023-02-28T09:26:25;-0.23;118.99
70867;HTU21D;58487;53.474;49.470;2023-02-28T09:28:52;-0.08;118.99
70867;HTU21D;58487;53.474;49.470;2023-02-28T09:31:24;-0.09;118.99
70867;HTU21D;58487;53.474;49.470;2023-02-28T09:33:53;-0.03;118.99
70867;HTU21D;58487;53.474;49.470;2023-02-28T09:36:19;0.10;118.99
70867;HTU21D;58487;53.474;49.470;2023-02-28T09:38:45;0.08;118.99
70867;HTU21D;58487;53.474;49.470;2023-02-28T09:41:18;0.13;118.99
70867;HTU21D;58487;53.474;49.470;2023-02-28T09:44:04;0.35;118.99
70867;HTU21D;58487;53.474;49.470;2023-02-28T09:46:39;0.44;118.99
70867;HTU21D;58487;53.474;49.470;2023-02-28T09:49:12;0.67;118.99
70867;HTU21D;58487;53.474;49.470;2023-02-28T09:51:45;0.72;118.99
70867;HTU21D;58487;53.474;49.470;2023-02-28T09:54:18;0.28;118.99
70867;HTU21D;58487;53.474;49.470;2023-02-28T09:57:00;0.08;118.99
70867;HTU21D;58487;53.474;49.470;2023-02-28T09:59:35;0.21;118.99
70867;HTU21D;58487;53.474;49.470;2023-02-28T10:05:12;0.21;118.99
70867;HTU21D;58487;53.474;49.470;2023-02-28T10:10:45;0.38;118.99
70867;HTU21D;58487;53.474;49.470;2023-02-28T10:16:11;0.22;118.99
70867;HTU21D;58487;53.474;49.470;2023-02-28T10:18:51;0.05;118.99
70867;HTU21D;58487;53.474;49.470;2023-02-28T10:21:21;0.39;118.99
70867;HTU21D;58487;53.474;49.470;2023-02-28T10:23:50;0.31;118.99
70867;HTU21D;58487;53.474;49.470;2023-02-28T10:26:18;0.53;118.99
70867;HTU21D;58487;53.474;49.470;2023-02-28T10:28:45;0.50;118.99
70867;HTU21D;58487;53.474;49.470;2023-02-28T10:31:18;0.45;118.99
70867;HTU21D;58487;53.474;49.470;2023-02-28T10:33:46;0.32;118.99
70867;HTU21D;58487;53.474;49.470;2023-02-28T10:36:15;0.31;118.99
70867;HTU21D;58487;53.474;49.470;2023-02-28T10:38:43;0.49;118.99
70867;HTU21D;58487;53.474;49.470;2023-02-28T10:41:26;0.64;118.99
70867;HTU21D;58487;53.474;49.470;2023-02-28T10:44:19;0.78;118.99
70867;HTU21D;58487;53.474;49.470;2023-02-28T10:46:46;0.59;118.99
70867;HTU21D;58487;53.474;49.470;2023-02-28T10:49:19;0.60;118.99
70867;HTU21D;58487;53.474;49.470;2023-02-28T10:51:49;1.02;118.99
70867;HTU21D;58487;53.474;49.470;2023-02-28T10:54:23;0.91;118.99
70867;HTU21D;58487;53.474;49.470;2023-02-28T10:57:19;0.80;118.99
70867;HTU21D;58487;53.474;49.470;2023-02-28T10:59:46;0.80;118.99
70867;HTU21D;58487;53.474;49.470;2023-02-28T11:04:59;0.95;118.99
70867;HTU21D;58487;53.474;49.470;2023-02-28T11:07:26;0.93;118.99
70867;HTU21D;58487;53.474;49.470;2023-02-28T11:09:55;0.68;118.99
70867;HTU21D;58487;53.474;49.470;2023-02-28T11:12:29;1.02;118.99
70867;HTU21D;58487;53.474;49.470;2023-02-28T11:14:59;0.95;118.99
70867;HTU21D;58487;53.474;49.470;2023-02-28T11:17:28;0.91;118.99
70867;HTU21D;58487;53.474;49.470;2023-02-28T11:20:02;0.99;118.99
70867;HTU21D;58487;53.474;49.470;2023-02-28T11:22:32;0.98;118.99
70867;HTU21D;58487;53.474;49.470;2023-02-28T11:25:07;1.17;118.99
70867;HTU21D;58487;53.474;49.470;2023-02-28T11:30:03;1.22;118.99
70867;HTU21D;58487;53.474;49.470;2023-02-28T11:32:30;1.16;118.99
70867;HTU21D;58487;53.474;49.470;2023-02-28T11:35:04;1.35;118.99
70867;HTU21D;58487;53.474;49.470;2023-02-28T11:37:39;1.20;118.99
70867;HTU21D;58487;53.474;49.470;2023-02-28T11:40:14;1.29;118.99
70867;HTU21D;58487;53.474;49.470;2023-02-28T11:48:18;1.33;118.99
70867;HTU21D;58487;53.474;49.470;2023-02-28T11:51:05;1.34;118.99
70867;HTU21D;58487;53.474;49.470;2023-02-28T11:56:46;1.81;118.99
70867;HTU21D;58487;53.474;49.470;2023-02-28T12:04:47;2.14;118.99
70867;HTU21D;58487;53.474;49.470;2023-02-28T12:13:15;2.15;118.99
70867;HTU21D;58487;53.474;49.470;2023-02-28T12:15:46;2.19;118.99
70867;HTU21D;58487;53.474;49.470;2023-02-28T12:18:42;2.24;118.99
70867;HTU21D;58487;53.474;49.470;2023-02-28T12:21:46;2.41;118.99
70867;HTU21D;58487;53.474;49.470;2023-02-28T12:26:57;1.91;118.99
70867;HTU21D;58487;53.474;49.470;2023-02-28T12:29:53;1.67;118.99
70867;HTU21D;58487;53.474;49.470;2023-02-28T12:32:23;1.72;118.99
70867;HTU21D;58487;53.474;49.470;2023-02-28T12:34:57;1.58;118.99
70867;HTU21D;58487;53.474;49.470;2023-02-28T12:37:33;1.46;118.99
70867;HTU21D;58487;53.474;49.470;2023-02-28T12:40:11;1.35;118.99
70867;HTU21D;58487;53.474;49.470;2023-02-28T12:42:54;1.21;118.99
70867;HTU21D;58487;53.474;49.470;2023-02-28T12:45:24;1.36;118.99
70867;HTU21D;58487;53.474;49.470;2023-02-28T12:48:02;1.40;118.99
70867;HTU21D;58487;53.474;49.470;2023-02-28T12:50:35;1.64;118.99
70867;HTU21D;58487;53.474;49.470;2023-02-28T12:53:06;1.41;118.99
70867;HTU21D;58487;53.474;49.470;2023-02-28T12:55:56;1.46;118.99
70867;HTU21D;58487;53.474;49.470;2023-02-28T13:06:45;1.62;118.99
70867;HTU21D;58487;53.474;49.470;2023-02-28T13:09:17;1.61;118.99
70867;HTU21D;58487;53.474;49.470;2023-02-28T13:11:52;1.93;118.99
70867;HTU21D;58487;53.474;49.470;2023-02-28T13:14:37;1.79;118.99
70867;HTU21D;58487;53.474;49.470;2023-02-28T13:19:43;1.82;118.99
70867;HTU21D;58487;53.474;49.470;2023-02-28T13:22:19;1.63;118.99
70867;HTU21D;58487;53.474;49.470;2023-02-28T13:27:22;1.49;118.99
70867;HTU21D;58487;53.474;49.470;2023-02-28T13:29:51;1.57;118.99
70867;HTU21D;58487;53.474;49.470;2023-02-28T13:32:31;1.51;118.99
70867;HTU21D;58487;53.474;49.470;2023-02-28T13:39:59;1.26;118.99
70867;HTU21D;58487;53.474;49.470;2023-02-28T13:42:47;1.19;118.99
70867;HTU21D;58487;53.474;49.470;2023-02-28T13:45:27;1.34;118.99
70867;HTU21D;58487;53.474;49.470;2023-02-28T13:48:25;1.19;118.99
70867;HTU21D;58487;53.474;49.470;2023-02-28T13:50:50;0.99;118.99
70867;HTU21D;58487;53.474;49.470;2023-02-28T14:01:32;0.19;118.99
70867;HTU21D;58487;53.474;49.470;2023-02-28T14:07:05;-0.28;118.99
70867;HTU21D;58487;53.474;49.470;2023-02-28T14:09:45;-0.46;118.99
70867;HTU21D;58487;53.474;49.470;2023-02-28T14:17:53;-1.09;118.99
70867;HTU21D;58487;53.474;49.470;2023-02-28T14:20:22;-1.28;118.99
70867;HTU21D;58487;53.474;49.470;2023-02-28T14:31:37;-1.61;118.99
70867;HTU21D;58487;53.474;49.470;2023-02-28T14:34:43;-1.62;118.99
70867;HTU21D;58487;53.474;49.470;2023-02-28T14:37:20;-1.74;118.99
70867;HTU21D;58487;53.474;49.470;2023-02-28T14:39:49;-1.61;118.99
70867;HTU21D;58487;53.474;49.470;2023-02-28T14:42:36;-1.69;118.99
70867;HTU21D;58487;53.474;49.470;2023-02-28T14:45:20;-1.68;118.99
70867;HTU21D;58487;53.474;49.470;2023-02-28T14:47:47;-1.85;118.99
70867;HTU21D;58487;53.474;49.470;2023-02-28T14:50:24;-1.75;118.99
70867;HTU21D;58487;53.474;49.470;2023-02-28T14:52:56;-1.90;118.99
70867;HTU21D;58487;53.474;49.470;2023-02-28T14:55:32;-1.79;118.99
70867;HTU21D;58487;53.474;49.470;2023-02-28T14:58:02;-1.87;118.99
70867;HTU21D;58487;53.474;49.470;2023-02-28T15:00:35;-1.87;118.99
70867;HTU21D;58487;53.474;49.470;2023-02-28T15:03:29;-1.88;118.99
70867;HTU21D;58487;53.474;49.470;2023-02-28T15:06:02;-1.93;118.99
70867;HTU21D;58487;53.474;49.470;2023-02-28T15:08:29;-2.00;118.99
70867;HTU21D;58487;53.474;49.470;2023-02-28T15:11:04;-2.10;118.99
70867;HTU21D;58487;53.474;49.470;2023-02-28T15:16:19;-2.08;118.99
70867;HTU21D;58487;53.474;49.470;2023-02-28T15:18:54;-2.12;118.99
70867;HTU21D;58487;53.474;49.470;2023-02-28T15:21:38;-2.21;118.99
70867;HTU21D;58487;53.474;49.470;2023-02-28T15:26:39;-2.22;118.99
70867;HTU21D;58487;53.474;49.470;2023-02-28T15:29:11;-2.06;118.99
70867;HTU21D;58487;53.474;49.470;2023-02-28T15:31:43;-1.90;118.99
70867;HTU21D;58487;53.474;49.470;2023-02-28T15:34:35;-2.29;118.99
70867;HTU21D;58487;53.474;49.470;2023-02-28T15:37:01;-2.21;118.99
70867;HTU21D;58487;53.474;49.470;2023-02-28T15:39:48;-2.31;118.99
70867;HTU21D;58487;53.474;49.470;2023-02-28T15:42:20;-2.26;118.99
70867;HTU21D;58487;53.474;49.470;2023-02-28T15:44:46;-2.28;118.99
70867;HTU21D;58487;53.474;49.470;2023-02-28T15:49:54;-2.33;118.99
70867;HTU21D;58487;53.474;49.470;2023-02-28T15:52:37;-2.37;118.99
70867;HTU21D;58487;53.474;49.470;2023-02-28T15:55:27;-2.44;118.99
70867;HTU21D;58487;53.474;49.470;2023-02-28T15:57:56;-2.49;118.99
70867;HTU21D;58487;53.474;49.470;2023-02-28T16:00:28;-2.62;118.99
70867;HTU21D;58487;53.474;49.470;2023-02-28T16:02:55;-2.58;118.99
70867;HTU21D;58487;53.474;49.470;2023-02-28T16:05:25;-2.64;118.99
70867;HTU21D;58487;53.474;49.470;2023-02-28T16:07:58;-2.59;118.99
70867;HTU21D;58487;53.474;49.470;2023-02-28T16:10:27;-2.65;118.99
70867;HTU21D;58487;53.474;49.470;2023-02-28T16:12:55;-2.61;118.99
70867;HTU21D;58487;53.474;49.470;2023-02-28T16:15:30;-2.73;118.99
70867;HTU21D;58487;53.474;49.470;2023-02-28T16:18:01;-2.64;118.99
70867;HTU21D;58487;53.474;49.470;2023-02-28T16:20:31;-2.60;118.99
70867;HTU21D;58487;53.474;49.470;2023-02-28T16:22:57;-2.64;118.99
70867;HTU21D;58487;53.474;49.470;2023-02-28T16:25:41;-2.77;118.99
70867;HTU21D;58487;53.474;49.470;2023-02-28T16:28:16;-2.72;118.99
70867;HTU21D;58487;53.474;49.470;2023-02-28T16:30:51;-2.75;118.99
70867;HTU21D;58487;53.474;49.470;2023-02-28T16:33:19;-2.72;118.99
70867;HTU21D;58487;53.474;49.470;2023-02-28T16:35:48;-2.77;118.99
70867;HTU21D;58487;53.474;49.470;2023-02-28T16:38:15;-2.80;118.99
70867;HTU21D;58487;53.474;49.470;2023-02-28T16:40:42;-2.87;118.99
70867;HTU21D;58487;53.474;49.470;2023-02-28T16:43:16;-2.83;118.99
70867;HTU21D;58487;53.474;49.470;2023-02-28T16:45:45;-2.84;118.99
70867;HTU21D;58487;53.474;49.470;2023-02-28T16:48:16;-2.83;118.99
70867;HTU21D;58487;53.474;49.470;2023-02-28T16:50:43;-2.83;118.99
70867;HTU21D;58487;53.474;49.470;2023-02-28T16:53:12;-2.98;118.99
70867;HTU21D;58487;53.474;49.470;2023-02-28T16:55:43;-3.02;118.99
70867;HTU21D;58487;53.474;49.470;2023-02-28T16:58:15;-3.10;118.99
70867;HTU21D;58487;53.474;49.470;2023-02-28T17:00:42;-3.16;118.99
70867;HTU21D;58487;53.474;49.470;2023-02-28T17:03:24;-3.16;118.99
70867;HTU21D;58487;53.474;49.470;2023-02-28T17:05:54;-3.18;118.99
70867;HTU21D;58487;53.474;49.470;2023-02-28T17:08:22;-3.15;118.99
70867;HTU21D;58487;53.474;49.470;2023-02-28T17:10:49;-3.16;118.99
70867;HTU21D;58487;53.474;49.470;2023-02-28T17:13:22;-3.21;118.99
70867;HTU21D;58487;53.474;49.470;2023-02-28T17:15:48;-3.16;118.99
70867;HTU21D;58487;53.474;49.470;2023-02-28T17:18:17;-3.23;118.99
70867;HTU21D;58487;53.474;49.470;2023-02-28T17:20:47;-3.21;118.99
70867;HTU21D;58487;53.474;49.470;2023-02-28T17:23:13;-3.19;118.99
70867;HTU21D;58487;53.474;49.470;2023-02-28T17:25:41;-3.12;118.99
70867;HTU21D;58487;53.474;49.470;2023-02-28T17:28:20;-3.07;118.99
70867;HTU21D;58487;53.474;49.470;2023-02-28T17:30:48;-3.11;118.99
70867;HTU21D;58487;53.474;49.470;2023-02-28T17:33:15;-3.19;118.99